sensor_id;sensor_type;location;lat;lon;timestamp;P1;durP1;ratioP1;P2;durP2;ratioP2
74551;SDS011;63025;55.472;38.432;2023-07-13T00:01:52;5.72;;;2.78;;
74551;SDS011;63025;55.472;38.432;2023-07-13T00:04:19;4.30;;;2.38;;
74551;SDS011;63025;55.472;38.432;2023-07-13T00:06:46;4.72;;;2.55;;
74551;SDS011;63025;55.472;38.432;2023-07-13T00:09:16;6.55;;;2.70;;
74551;SDS011;63025;55.472;38.432;2023-07-13T00:11:44;5.53;;;2.78;;
74551;SDS011;63025;55.472;38.432;2023-07-13T00:14:13;5.70;;;2.67;;
74551;SDS011;63025;55.472;38.432;2023-07-13T00:16:39;3.97;;;2.40;;
74551;SDS011;63025;55.472;38.432;2023-07-13T00:19:09;4.55;;;2.72;;
74551;SDS011;63025;55.472;38.432;2023-07-13T00:21:37;4.85;;;2.95;;
74551;SDS011;63025;55.472;38.432;2023-07-13T00:24:04;5.95;;;3.03;;
74551;SDS011;63025;55.472;38.432;2023-07-13T00:26:31;9.05;;;2.92;;
74551;SDS011;63025;55.472;38.432;2023-07-13T00:28:58;5.18;;;3.00;;
74551;SDS011;63025;55.472;38.432;2023-07-13T00:31:24;5.53;;;3.20;;
74551;SDS011;63025;55.472;38.432;2023-07-13T00:33:50;5.40;;;2.60;;
74551;SDS011;63025;55.472;38.432;2023-07-13T00:36:16;5.78;;;3.05;;
74551;SDS011;63025;55.472;38.432;2023-07-13T00:38:43;6.07;;;3.40;;
74551;SDS011;63025;55.472;38.432;2023-07-13T00:41:09;6.97;;;3.30;;
74551;SDS011;63025;55.472;38.432;2023-07-13T00:43:35;5.47;;;3.13;;
74551;SDS011;63025;55.472;38.432;2023-07-13T00:48:29;7.28;;;3.22;;
74551;SDS011;63025;55.472;38.432;2023-07-13T00:50:58;5.35;;;3.10;;
74551;SDS011;63025;55.472;38.432;2023-07-13T00:53:27;8.88;;;3.25;;
74551;SDS011;63025;55.472;38.432;2023-07-13T00:55:55;6.70;;;3.33;;
74551;SDS011;63025;55.472;38.432;2023-07-13T00:58:22;7.22;;;3.08;;
74551;SDS011;63025;55.472;38.432;2023-07-13T01:00:50;4.97;;;3.10;;
74551;SDS011;63025;55.472;38.432;2023-07-13T01:03:17;6.88;;;3.40;;
74551;SDS011;63025;55.472;38.432;2023-07-13T01:05:43;6.03;;;2.90;;
74551;SDS011;63025;55.472;38.432;2023-07-13T01:08:13;6.38;;;3.30;;
74551;SDS011;63025;55.472;38.432;2023-07-13T01:10:39;6.38;;;3.42;;
74551;SDS011;63025;55.472;38.432;2023-07-13T01:13:06;4.78;;;3.20;;
74551;SDS011;63025;55.472;38.432;2023-07-13T01:18:07;4.40;;;3.08;;
74551;SDS011;63025;55.472;38.432;2023-07-13T01:20:35;5.38;;;3.03;;
74551;SDS011;63025;55.472;38.432;2023-07-13T01:23:05;6.47;;;2.75;;
74551;SDS011;63025;55.472;38.432;2023-07-13T01:25:34;6.82;;;2.97;;
74551;SDS011;63025;55.472;38.432;2023-07-13T01:28:01;5.15;;;3.00;;
74551;SDS011;63025;55.472;38.432;2023-07-13T01:30:28;8.23;;;2.92;;
74551;SDS011;63025;55.472;38.432;2023-07-13T01:32:54;5.75;;;3.00;;
74551;SDS011;63025;55.472;38.432;2023-07-13T01:35:20;5.22;;;2.88;;
74551;SDS011;63025;55.472;38.432;2023-07-13T01:37:46;5.82;;;3.20;;
74551;SDS011;63025;55.472;38.432;2023-07-13T01:40:14;5.95;;;3.22;;
74551;SDS011;63025;55.472;38.432;2023-07-13T01:42:40;5.00;;;2.90;;
74551;SDS011;63025;55.472;38.432;2023-07-13T01:45:06;4.32;;;2.53;;
74551;SDS011;63025;55.472;38.432;2023-07-13T01:47:32;5.07;;;2.97;;
74551;SDS011;63025;55.472;38.432;2023-07-13T01:49:58;5.43;;;3.08;;
74551;SDS011;63025;55.472;38.432;2023-07-13T01:52:24;5.30;;;2.70;;
74551;SDS011;63025;55.472;38.432;2023-07-13T01:54:50;4.97;;;3.00;;
74551;SDS011;63025;55.472;38.432;2023-07-13T01:57:16;5.20;;;2.70;;
74551;SDS011;63025;55.472;38.432;2023-07-13T01:59:42;5.10;;;2.90;;
74551;SDS011;63025;55.472;38.432;2023-07-13T02:02:08;4.47;;;2.83;;
74551;SDS011;63025;55.472;38.432;2023-07-13T02:04:34;5.18;;;2.80;;
74551;SDS011;63025;55.472;38.432;2023-07-13T02:07:01;5.55;;;2.90;;
74551;SDS011;63025;55.472;38.432;2023-07-13T02:09:28;5.18;;;2.78;;
74551;SDS011;63025;55.472;38.432;2023-07-13T02:11:54;5.72;;;2.80;;
74551;SDS011;63025;55.472;38.432;2023-07-13T02:14:20;4.85;;;3.08;;
74551;SDS011;63025;55.472;38.432;2023-07-13T02:16:46;5.32;;;3.03;;
74551;SDS011;63025;55.472;38.432;2023-07-13T02:19:14;5.47;;;2.85;;
74551;SDS011;63025;55.472;38.432;2023-07-13T02:21:40;5.68;;;2.85;;
74551;SDS011;63025;55.472;38.432;2023-07-13T02:24:05;5.03;;;2.67;;
74551;SDS011;63025;55.472;38.432;2023-07-13T02:26:31;5.05;;;2.53;;
74551;SDS011;63025;55.472;38.432;2023-07-13T02:28:57;4.80;;;2.95;;
74551;SDS011;63025;55.472;38.432;2023-07-13T02:31:23;4.05;;;2.50;;
74551;SDS011;63025;55.472;38.432;2023-07-13T02:33:49;5.10;;;2.70;;
74551;SDS011;63025;55.472;38.432;2023-07-13T02:36:15;5.90;;;2.50;;
74551;SDS011;63025;55.472;38.432;2023-07-13T02:38:43;4.90;;;2.50;;
74551;SDS011;63025;55.472;38.432;2023-07-13T02:41:09;4.80;;;2.45;;
74551;SDS011;63025;55.472;38.432;2023-07-13T02:43:36;7.28;;;2.50;;
74551;SDS011;63025;55.472;38.432;2023-07-13T02:46:03;5.63;;;2.58;;
74551;SDS011;63025;55.472;38.432;2023-07-13T02:48:36;5.18;;;2.55;;
74551;SDS011;63025;55.472;38.432;2023-07-13T02:51:03;4.68;;;2.47;;
74551;SDS011;63025;55.472;38.432;2023-07-13T02:53:29;6.43;;;2.50;;
74551;SDS011;63025;55.472;38.432;2023-07-13T02:55:55;6.30;;;3.15;;
74551;SDS011;63025;55.472;38.432;2023-07-13T02:58:21;4.70;;;2.78;;
74551;SDS011;63025;55.472;38.432;2023-07-13T03:00:47;5.93;;;2.63;;
74551;SDS011;63025;55.472;38.432;2023-07-13T03:03:16;6.15;;;2.90;;
74551;SDS011;63025;55.472;38.432;2023-07-13T03:05:43;5.72;;;2.75;;
74551;SDS011;63025;55.472;38.432;2023-07-13T03:08:11;5.88;;;2.72;;
74551;SDS011;63025;55.472;38.432;2023-07-13T03:10:38;7.22;;;2.80;;
74551;SDS011;63025;55.472;38.432;2023-07-13T03:13:09;4.32;;;2.72;;
74551;SDS011;63025;55.472;38.432;2023-07-13T03:15:35;4.45;;;2.40;;
74551;SDS011;63025;55.472;38.432;2023-07-13T03:18:01;6.28;;;3.00;;
74551;SDS011;63025;55.472;38.432;2023-07-13T03:20:27;6.28;;;2.70;;
74551;SDS011;63025;55.472;38.432;2023-07-13T03:22:53;5.25;;;2.50;;
74551;SDS011;63025;55.472;38.432;2023-07-13T03:25:20;6.63;;;2.63;;
74551;SDS011;63025;55.472;38.432;2023-07-13T03:27:47;4.78;;;2.70;;
74551;SDS011;63025;55.472;38.432;2023-07-13T03:30:12;7.10;;;2.78;;
74551;SDS011;63025;55.472;38.432;2023-07-13T03:32:39;4.75;;;2.50;;
74551;SDS011;63025;55.472;38.432;2023-07-13T03:35:05;5.32;;;3.10;;
74551;SDS011;63025;55.472;38.432;2023-07-13T03:37:31;4.97;;;2.50;;
74551;SDS011;63025;55.472;38.432;2023-07-13T03:39:57;8.82;;;2.70;;
74551;SDS011;63025;55.472;38.432;2023-07-13T03:42:25;5.80;;;2.40;;
74551;SDS011;63025;55.472;38.432;2023-07-13T03:44:51;6.55;;;2.55;;
74551;SDS011;63025;55.472;38.432;2023-07-13T03:47:18;6.18;;;2.70;;
74551;SDS011;63025;55.472;38.432;2023-07-13T03:49:45;5.03;;;2.78;;
74551;SDS011;63025;55.472;38.432;2023-07-13T03:52:13;5.38;;;2.60;;
74551;SDS011;63025;55.472;38.432;2023-07-13T03:54:38;6.18;;;2.60;;
74551;SDS011;63025;55.472;38.432;2023-07-13T03:57:05;6.85;;;2.42;;
74551;SDS011;63025;55.472;38.432;2023-07-13T03:59:34;5.63;;;2.53;;
74551;SDS011;63025;55.472;38.432;2023-07-13T04:02:00;8.80;;;2.70;;
74551;SDS011;63025;55.472;38.432;2023-07-13T04:04:27;4.35;;;2.30;;
74551;SDS011;63025;55.472;38.432;2023-07-13T04:06:53;7.50;;;2.60;;
74551;SDS011;63025;55.472;38.432;2023-07-13T04:09:19;6.22;;;2.58;;
74551;SDS011;63025;55.472;38.432;2023-07-13T04:11:45;4.40;;;2.60;;
74551;SDS011;63025;55.472;38.432;2023-07-13T04:14:10;5.07;;;2.33;;
74551;SDS011;63025;55.472;38.432;2023-07-13T04:16:36;5.05;;;2.42;;
74551;SDS011;63025;55.472;38.432;2023-07-13T04:19:02;5.38;;;2.33;;
74551;SDS011;63025;55.472;38.432;2023-07-13T04:21:28;5.75;;;2.78;;
74551;SDS011;63025;55.472;38.432;2023-07-13T04:23:56;5.80;;;2.58;;
74551;SDS011;63025;55.472;38.432;2023-07-13T04:26:22;6.57;;;2.72;;
74551;SDS011;63025;55.472;38.432;2023-07-13T04:28:49;8.00;;;2.92;;
74551;SDS011;63025;55.472;38.432;2023-07-13T04:31:16;5.47;;;2.70;;
74551;SDS011;63025;55.472;38.432;2023-07-13T04:33:43;6.38;;;3.17;;
74551;SDS011;63025;55.472;38.432;2023-07-13T04:36:09;6.85;;;3.35;;
74551;SDS011;63025;55.472;38.432;2023-07-13T04:38:35;7.95;;;3.28;;
74551;SDS011;63025;55.472;38.432;2023-07-13T04:41:03;6.30;;;3.20;;
74551;SDS011;63025;55.472;38.432;2023-07-13T04:43:31;5.75;;;3.40;;
74551;SDS011;63025;55.472;38.432;2023-07-13T04:46:02;6.05;;;3.00;;
74551;SDS011;63025;55.472;38.432;2023-07-13T04:48:33;10.45;;;3.30;;
74551;SDS011;63025;55.472;38.432;2023-07-13T04:50:59;7.05;;;3.33;;
74551;SDS011;63025;55.472;38.432;2023-07-13T04:53:25;7.53;;;3.10;;
74551;SDS011;63025;55.472;38.432;2023-07-13T04:55:52;9.65;;;3.75;;
74551;SDS011;63025;55.472;38.432;2023-07-13T04:58:18;9.60;;;3.60;;
74551;SDS011;63025;55.472;38.432;2023-07-13T05:00:44;7.95;;;3.40;;
74551;SDS011;63025;55.472;38.432;2023-07-13T05:03:09;9.95;;;3.45;;
74551;SDS011;63025;55.472;38.432;2023-07-13T05:05:35;7.72;;;3.65;;
74551;SDS011;63025;55.472;38.432;2023-07-13T05:08:01;7.90;;;3.30;;
74551;SDS011;63025;55.472;38.432;2023-07-13T05:10:27;9.43;;;3.05;;
74551;SDS011;63025;55.472;38.432;2023-07-13T05:12:53;9.57;;;3.50;;
74551;SDS011;63025;55.472;38.432;2023-07-13T05:15:20;11.52;;;3.55;;
74551;SDS011;63025;55.472;38.432;2023-07-13T05:17:47;8.32;;;3.67;;
74551;SDS011;63025;55.472;38.432;2023-07-13T05:20:14;7.43;;;3.30;;
74551;SDS011;63025;55.472;38.432;2023-07-13T05:22:40;8.10;;;3.33;;
74551;SDS011;63025;55.472;38.432;2023-07-13T05:25:06;8.45;;;3.22;;
74551;SDS011;63025;55.472;38.432;2023-07-13T05:27:33;10.25;;;2.80;;
74551;SDS011;63025;55.472;38.432;2023-07-13T05:30:00;7.38;;;3.08;;
74551;SDS011;63025;55.472;38.432;2023-07-13T05:32:29;11.80;;;3.75;;
74551;SDS011;63025;55.472;38.432;2023-07-13T05:34:55;7.93;;;3.25;;
74551;SDS011;63025;55.472;38.432;2023-07-13T05:37:21;6.82;;;3.10;;
74551;SDS011;63025;55.472;38.432;2023-07-13T05:39:47;9.88;;;2.80;;
74551;SDS011;63025;55.472;38.432;2023-07-13T05:42:12;5.65;;;2.78;;
74551;SDS011;63025;55.472;38.432;2023-07-13T05:44:38;6.18;;;3.10;;
74551;SDS011;63025;55.472;38.432;2023-07-13T05:47:04;5.28;;;2.92;;
74551;SDS011;63025;55.472;38.432;2023-07-13T05:49:30;5.22;;;2.90;;
74551;SDS011;63025;55.472;38.432;2023-07-13T05:51:56;6.32;;;2.83;;
74551;SDS011;63025;55.472;38.432;2023-07-13T05:54:22;7.20;;;3.08;;
74551;SDS011;63025;55.472;38.432;2023-07-13T05:56:48;5.30;;;2.85;;
74551;SDS011;63025;55.472;38.432;2023-07-13T05:59:14;7.35;;;3.10;;
74551;SDS011;63025;55.472;38.432;2023-07-13T06:01:40;4.72;;;2.60;;
74551;SDS011;63025;55.472;38.432;2023-07-13T06:04:06;8.38;;;2.88;;
74551;SDS011;63025;55.472;38.432;2023-07-13T06:06:32;6.40;;;2.78;;
74551;SDS011;63025;55.472;38.432;2023-07-13T06:08:58;6.68;;;2.92;;
74551;SDS011;63025;55.472;38.432;2023-07-13T06:11:25;7.25;;;2.92;;
74551;SDS011;63025;55.472;38.432;2023-07-13T06:13:53;7.60;;;2.60;;
74551;SDS011;63025;55.472;38.432;2023-07-13T06:16:19;4.57;;;2.35;;
74551;SDS011;63025;55.472;38.432;2023-07-13T06:18:45;5.15;;;2.65;;
74551;SDS011;63025;55.472;38.432;2023-07-13T06:21:15;5.53;;;2.50;;
74551;SDS011;63025;55.472;38.432;2023-07-13T06:23:43;4.90;;;2.80;;
74551;SDS011;63025;55.472;38.432;2023-07-13T06:26:10;5.07;;;2.60;;
74551;SDS011;63025;55.472;38.432;2023-07-13T06:28:36;5.72;;;2.65;;
74551;SDS011;63025;55.472;38.432;2023-07-13T06:31:05;8.05;;;2.72;;
74551;SDS011;63025;55.472;38.432;2023-07-13T06:33:32;6.13;;;2.97;;
74551;SDS011;63025;55.472;38.432;2023-07-13T06:35:58;3.90;;;2.47;;
74551;SDS011;63025;55.472;38.432;2023-07-13T06:38:24;7.32;;;2.33;;
74551;SDS011;63025;55.472;38.432;2023-07-13T06:40:50;5.93;;;2.45;;
74551;SDS011;63025;55.472;38.432;2023-07-13T06:43:17;7.57;;;2.58;;
74551;SDS011;63025;55.472;38.432;2023-07-13T06:45:44;6.22;;;2.85;;
74551;SDS011;63025;55.472;38.432;2023-07-13T06:48:13;4.35;;;2.42;;
74551;SDS011;63025;55.472;38.432;2023-07-13T06:50:40;5.10;;;2.20;;
74551;SDS011;63025;55.472;38.432;2023-07-13T06:53:07;8.45;;;2.70;;
74551;SDS011;63025;55.472;38.432;2023-07-13T06:55:33;5.00;;;2.33;;
74551;SDS011;63025;55.472;38.432;2023-07-13T06:57:59;5.47;;;2.80;;
74551;SDS011;63025;55.472;38.432;2023-07-13T07:00:24;5.28;;;2.58;;
74551;SDS011;63025;55.472;38.432;2023-07-13T07:02:50;5.28;;;2.40;;
74551;SDS011;63025;55.472;38.432;2023-07-13T07:05:16;5.82;;;2.50;;
74551;SDS011;63025;55.472;38.432;2023-07-13T07:07:42;4.32;;;2.50;;
74551;SDS011;63025;55.472;38.432;2023-07-13T07:10:08;5.28;;;2.40;;
74551;SDS011;63025;55.472;38.432;2023-07-13T07:12:34;4.75;;;2.47;;
74551;SDS011;63025;55.472;38.432;2023-07-13T07:15:00;6.15;;;2.42;;
74551;SDS011;63025;55.472;38.432;2023-07-13T07:17:26;6.10;;;3.00;;
74551;SDS011;63025;55.472;38.432;2023-07-13T07:19:52;5.55;;;2.10;;
74551;SDS011;63025;55.472;38.432;2023-07-13T07:22:20;5.07;;;2.83;;
74551;SDS011;63025;55.472;38.432;2023-07-13T07:24:46;6.78;;;2.67;;
74551;SDS011;63025;55.472;38.432;2023-07-13T07:27:12;4.15;;;2.60;;
74551;SDS011;63025;55.472;38.432;2023-07-13T07:29:37;5.88;;;2.78;;
74551;SDS011;63025;55.472;38.432;2023-07-13T07:32:04;5.75;;;2.70;;
74551;SDS011;63025;55.472;38.432;2023-07-13T07:34:30;6.95;;;2.67;;
74551;SDS011;63025;55.472;38.432;2023-07-13T07:36:58;10.35;;;2.90;;
74551;SDS011;63025;55.472;38.432;2023-07-13T07:39:26;5.75;;;2.80;;
74551;SDS011;63025;55.472;38.432;2023-07-13T07:41:53;7.65;;;2.92;;
74551;SDS011;63025;55.472;38.432;2023-07-13T07:44:18;4.93;;;2.28;;
74551;SDS011;63025;55.472;38.432;2023-07-13T07:46:44;5.32;;;2.65;;
74551;SDS011;63025;55.472;38.432;2023-07-13T07:49:10;7.22;;;2.65;;
74551;SDS011;63025;55.472;38.432;2023-07-13T07:51:36;9.10;;;3.10;;
74551;SDS011;63025;55.472;38.432;2023-07-13T07:54:03;5.43;;;2.47;;
74551;SDS011;63025;55.472;38.432;2023-07-13T07:56:29;4.65;;;2.65;;
74551;SDS011;63025;55.472;38.432;2023-07-13T07:58:55;5.20;;;2.63;;
74551;SDS011;63025;55.472;38.432;2023-07-13T08:01:21;5.85;;;2.58;;
74551;SDS011;63025;55.472;38.432;2023-07-13T08:03:47;4.68;;;2.58;;
74551;SDS011;63025;55.472;38.432;2023-07-13T08:06:13;5.57;;;2.65;;
74551;SDS011;63025;55.472;38.432;2023-07-13T08:08:39;4.85;;;2.35;;
74551;SDS011;63025;55.472;38.432;2023-07-13T08:11:06;5.07;;;2.70;;
74551;SDS011;63025;55.472;38.432;2023-07-13T08:13:33;6.35;;;2.78;;
74551;SDS011;63025;55.472;38.432;2023-07-13T08:16:00;7.68;;;2.88;;
74551;SDS011;63025;55.472;38.432;2023-07-13T08:18:26;6.47;;;3.00;;
74551;SDS011;63025;55.472;38.432;2023-07-13T08:20:55;5.25;;;2.53;;
74551;SDS011;63025;55.472;38.432;2023-07-13T08:23:22;5.15;;;2.83;;
74551;SDS011;63025;55.472;38.432;2023-07-13T08:25:52;8.15;;;2.63;;
74551;SDS011;63025;55.472;38.432;2023-07-13T08:28:22;7.05;;;2.83;;
74551;SDS011;63025;55.472;38.432;2023-07-13T08:30:48;6.55;;;3.10;;
74551;SDS011;63025;55.472;38.432;2023-07-13T08:33:23;6.43;;;2.85;;
74551;SDS011;63025;55.472;38.432;2023-07-13T08:35:52;7.35;;;2.90;;
74551;SDS011;63025;55.472;38.432;2023-07-13T08:38:18;4.60;;;2.88;;
74551;SDS011;63025;55.472;38.432;2023-07-13T08:40:44;6.25;;;2.85;;
74551;SDS011;63025;55.472;38.432;2023-07-13T08:43:18;5.95;;;3.28;;
74551;SDS011;63025;55.472;38.432;2023-07-13T08:46:02;5.18;;;3.30;;
74551;SDS011;63025;55.472;38.432;2023-07-13T08:49:03;9.32;;;3.33;;
74551;SDS011;63025;55.472;38.432;2023-07-13T08:51:31;5.40;;;3.40;;
74551;SDS011;63025;55.472;38.432;2023-07-13T08:54:03;5.45;;;3.05;;
74551;SDS011;63025;55.472;38.432;2023-07-13T08:56:35;6.22;;;3.47;;
74551;SDS011;63025;55.472;38.432;2023-07-13T08:59:14;8.23;;;3.60;;
74551;SDS011;63025;55.472;38.432;2023-07-13T09:04:32;6.15;;;3.40;;
74551;SDS011;63025;55.472;38.432;2023-07-13T09:09:50;9.65;;;3.55;;
74551;SDS011;63025;55.472;38.432;2023-07-13T09:14:57;6.78;;;3.50;;
74551;SDS011;63025;55.472;38.432;2023-07-13T09:17:27;8.00;;;3.40;;
74551;SDS011;63025;55.472;38.432;2023-07-13T09:20:02;7.35;;;3.60;;
74551;SDS011;63025;55.472;38.432;2023-07-13T09:22:34;5.70;;;3.20;;
74551;SDS011;63025;55.472;38.432;2023-07-13T09:25:20;6.03;;;3.13;;
74551;SDS011;63025;55.472;38.432;2023-07-13T09:27:56;5.70;;;3.25;;
74551;SDS011;63025;55.472;38.432;2023-07-13T09:33:19;8.43;;;2.83;;
74551;SDS011;63025;55.472;38.432;2023-07-13T09:35:45;4.97;;;2.65;;
74551;SDS011;63025;55.472;38.432;2023-07-13T09:38:12;20.30;;;10.38;;
74551;SDS011;63025;55.472;38.432;2023-07-13T09:46:36;8.35;;;5.05;;
74551;SDS011;63025;55.472;38.432;2023-07-13T09:49:03;5.28;;;2.60;;
74551;SDS011;63025;55.472;38.432;2023-07-13T09:51:28;7.32;;;3.15;;
74551;SDS011;63025;55.472;38.432;2023-07-13T09:53:54;5.63;;;2.60;;
74551;SDS011;63025;55.472;38.432;2023-07-13T09:56:26;5.50;;;3.00;;
74551;SDS011;63025;55.472;38.432;2023-07-13T09:58:53;4.53;;;2.60;;
74551;SDS011;63025;55.472;38.432;2023-07-13T10:01:36;8.18;;;3.05;;
74551;SDS011;63025;55.472;38.432;2023-07-13T10:06:37;6.30;;;2.65;;
74551;SDS011;63025;55.472;38.432;2023-07-13T10:09:07;4.65;;;2.65;;
74551;SDS011;63025;55.472;38.432;2023-07-13T10:11:34;5.25;;;3.00;;
74551;SDS011;63025;55.472;38.432;2023-07-13T10:14:02;4.60;;;2.58;;
74551;SDS011;63025;55.472;38.432;2023-07-13T10:16:34;4.70;;;2.72;;
74551;SDS011;63025;55.472;38.432;2023-07-13T10:21:32;5.47;;;2.80;;
74551;SDS011;63025;55.472;38.432;2023-07-13T10:24:18;6.50;;;2.85;;
74551;SDS011;63025;55.472;38.432;2023-07-13T10:26:54;3.92;;;2.33;;
74551;SDS011;63025;55.472;38.432;2023-07-13T10:29:24;7.10;;;3.60;;
74551;SDS011;63025;55.472;38.432;2023-07-13T10:31:53;8.57;;;3.17;;
74551;SDS011;63025;55.472;38.432;2023-07-13T10:34:18;5.82;;;3.10;;
74551;SDS011;63025;55.472;38.432;2023-07-13T10:36:46;6.13;;;2.60;;
74551;SDS011;63025;55.472;38.432;2023-07-13T10:39:17;4.55;;;2.65;;
74551;SDS011;63025;55.472;38.432;2023-07-13T10:41:46;6.70;;;2.88;;
74551;SDS011;63025;55.472;38.432;2023-07-13T10:44:24;6.43;;;2.88;;
74551;SDS011;63025;55.472;38.432;2023-07-13T10:47:15;9.32;;;3.85;;
74551;SDS011;63025;55.472;38.432;2023-07-13T10:49:43;5.75;;;3.08;;
74551;SDS011;63025;55.472;38.432;2023-07-13T10:52:54;6.75;;;3.17;;
74551;SDS011;63025;55.472;38.432;2023-07-13T10:58:12;5.82;;;2.75;;
74551;SDS011;63025;55.472;38.432;2023-07-13T11:03:17;5.47;;;3.53;;
74551;SDS011;63025;55.472;38.432;2023-07-13T11:05:47;6.50;;;3.05;;
74551;SDS011;63025;55.472;38.432;2023-07-13T11:08:34;7.53;;;3.30;;
74551;SDS011;63025;55.472;38.432;2023-07-13T11:11:02;5.57;;;3.13;;
74551;SDS011;63025;55.472;38.432;2023-07-13T11:16:46;6.95;;;3.40;;
74551;SDS011;63025;55.472;38.432;2023-07-13T11:21:28;7.45;;;4.00;;
74551;SDS011;63025;55.472;38.432;2023-07-13T11:24:17;7.78;;;3.90;;
74551;SDS011;63025;55.472;38.432;2023-07-13T11:31:58;7.55;;;3.92;;
74551;SDS011;63025;55.472;38.432;2023-07-13T11:34:33;6.82;;;4.10;;
74551;SDS011;63025;55.472;38.432;2023-07-13T11:37:03;10.18;;;4.45;;
74551;SDS011;63025;55.472;38.432;2023-07-13T11:39:33;9.45;;;4.28;;
74551;SDS011;63025;55.472;38.432;2023-07-13T11:42:03;6.30;;;3.88;;
74551;SDS011;63025;55.472;38.432;2023-07-13T11:44:33;9.15;;;4.13;;
74551;SDS011;63025;55.472;38.432;2023-07-13T11:47:07;8.63;;;3.92;;
74551;SDS011;63025;55.472;38.432;2023-07-13T11:49:42;10.38;;;4.10;;
74551;SDS011;63025;55.472;38.432;2023-07-13T11:52:11;10.05;;;4.00;;
74551;SDS011;63025;55.472;38.432;2023-07-13T11:54:47;8.95;;;4.00;;
74551;SDS011;63025;55.472;38.432;2023-07-13T11:57:38;7.07;;;3.95;;
74551;SDS011;63025;55.472;38.432;2023-07-13T12:00:15;8.02;;;4.35;;
74551;SDS011;63025;55.472;38.432;2023-07-13T12:02:47;9.52;;;4.45;;
74551;SDS011;63025;55.472;38.432;2023-07-13T12:05:16;9.15;;;4.30;;
74551;SDS011;63025;55.472;38.432;2023-07-13T12:07:43;8.52;;;4.45;;
74551;SDS011;63025;55.472;38.432;2023-07-13T12:12:55;8.68;;;4.55;;
74551;SDS011;63025;55.472;38.432;2023-07-13T12:15:36;7.23;;;4.37;;
74551;SDS011;63025;55.472;38.432;2023-07-13T12:18:14;8.35;;;4.65;;
74551;SDS011;63025;55.472;38.432;2023-07-13T12:20:46;9.10;;;4.95;;
74551;SDS011;63025;55.472;38.432;2023-07-13T12:23:28;10.15;;;4.75;;
74551;SDS011;63025;55.472;38.432;2023-07-13T12:25:55;9.20;;;4.72;;
74551;SDS011;63025;55.472;38.432;2023-07-13T12:28:36;10.02;;;4.53;;
74551;SDS011;63025;55.472;38.432;2023-07-13T12:31:07;8.27;;;5.50;;
74551;SDS011;63025;55.472;38.432;2023-07-13T12:34:12;10.38;;;5.22;;
74551;SDS011;63025;55.472;38.432;2023-07-13T12:36:46;10.38;;;5.30;;
74551;SDS011;63025;55.472;38.432;2023-07-13T12:39:20;10.10;;;5.93;;
74551;SDS011;63025;55.472;38.432;2023-07-13T12:41:49;12.30;;;5.95;;
74551;SDS011;63025;55.472;38.432;2023-07-13T12:44:23;11.95;;;5.78;;
74551;SDS011;63025;55.472;38.432;2023-07-13T12:46:58;10.05;;;5.50;;
74551;SDS011;63025;55.472;38.432;2023-07-13T12:49:31;9.27;;;4.97;;
74551;SDS011;63025;55.472;38.432;2023-07-13T12:52:01;10.18;;;5.13;;
74551;SDS011;63025;55.472;38.432;2023-07-13T12:54:29;9.32;;;5.50;;
74551;SDS011;63025;55.472;38.432;2023-07-13T12:56:56;12.52;;;6.00;;
74551;SDS011;63025;55.472;38.432;2023-07-13T12:59:24;12.15;;;6.43;;
74551;SDS011;63025;55.472;38.432;2023-07-13T13:01:54;12.43;;;6.38;;
74551;SDS011;63025;55.472;38.432;2023-07-13T13:04:20;9.57;;;5.97;;
74551;SDS011;63025;55.472;38.432;2023-07-13T13:06:47;9.10;;;5.05;;
74551;SDS011;63025;55.472;38.432;2023-07-13T13:09:14;5.80;;;3.95;;
74551;SDS011;63025;55.472;38.432;2023-07-13T13:11:41;6.68;;;3.80;;
74551;SDS011;63025;55.472;38.432;2023-07-13T13:14:08;7.22;;;3.40;;
74551;SDS011;63025;55.472;38.432;2023-07-13T13:16:35;7.97;;;3.75;;
74551;SDS011;63025;55.472;38.432;2023-07-13T13:19:18;10.35;;;3.85;;
74551;SDS011;63025;55.472;38.432;2023-07-13T13:21:48;9.85;;;3.33;;
74551;SDS011;63025;55.472;38.432;2023-07-13T13:24:16;5.20;;;3.13;;
74551;SDS011;63025;55.472;38.432;2023-07-13T13:26:45;6.07;;;2.92;;
74551;SDS011;63025;55.472;38.432;2023-07-13T13:29:13;10.82;;;3.60;;
74551;SDS011;63025;55.472;38.432;2023-07-13T13:31:41;6.63;;;3.13;;
74551;SDS011;63025;55.472;38.432;2023-07-13T13:34:13;5.50;;;2.97;;
74551;SDS011;63025;55.472;38.432;2023-07-13T13:36:41;8.23;;;3.70;;
74551;SDS011;63025;55.472;38.432;2023-07-13T13:39:16;6.78;;;3.38;;
74551;SDS011;63025;55.472;38.432;2023-07-13T13:41:43;7.15;;;3.33;;
74551;SDS011;63025;55.472;38.432;2023-07-13T13:44:09;6.72;;;3.38;;
74551;SDS011;63025;55.472;38.432;2023-07-13T13:46:36;6.75;;;2.88;;
74551;SDS011;63025;55.472;38.432;2023-07-13T13:49:02;8.00;;;3.50;;
74551;SDS011;63025;55.472;38.432;2023-07-13T13:51:28;7.57;;;3.55;;
74551;SDS011;63025;55.472;38.432;2023-07-13T13:53:55;9.45;;;4.60;;
74551;SDS011;63025;55.472;38.432;2023-07-13T13:56:21;9.23;;;3.90;;
74551;SDS011;63025;55.472;38.432;2023-07-13T13:58:47;10.73;;;3.92;;
74551;SDS011;63025;55.472;38.432;2023-07-13T14:01:16;10.35;;;4.05;;
74551;SDS011;63025;55.472;38.432;2023-07-13T14:03:43;8.88;;;3.97;;
74551;SDS011;63025;55.472;38.432;2023-07-13T14:06:13;10.93;;;3.55;;
74551;SDS011;63025;55.472;38.432;2023-07-13T14:08:40;8.80;;;3.58;;
74551;SDS011;63025;55.472;38.432;2023-07-13T14:11:07;6.85;;;3.40;;
74551;SDS011;63025;55.472;38.432;2023-07-13T14:13:43;6.20;;;3.55;;
74551;SDS011;63025;55.472;38.432;2023-07-13T14:16:17;5.93;;;3.65;;
74551;SDS011;63025;55.472;38.432;2023-07-13T14:18:45;8.65;;;3.85;;
74551;SDS011;63025;55.472;38.432;2023-07-13T14:21:13;8.68;;;4.22;;
74551;SDS011;63025;55.472;38.432;2023-07-13T14:23:41;11.63;;;4.22;;
74551;SDS011;63025;55.472;38.432;2023-07-13T14:26:10;9.70;;;4.10;;
74551;SDS011;63025;55.472;38.432;2023-07-13T14:31:09;7.18;;;4.10;;
74551;SDS011;63025;55.472;38.432;2023-07-13T14:33:36;10.30;;;5.07;;
74551;SDS011;63025;55.472;38.432;2023-07-13T14:36:02;9.05;;;3.80;;
74551;SDS011;63025;55.472;38.432;2023-07-13T14:38:42;7.15;;;4.05;;
74551;SDS011;63025;55.472;38.432;2023-07-13T14:41:08;7.53;;;4.00;;
74551;SDS011;63025;55.472;38.432;2023-07-13T14:43:33;7.05;;;4.10;;
74551;SDS011;63025;55.472;38.432;2023-07-13T14:46:00;6.13;;;4.30;;
74551;SDS011;63025;55.472;38.432;2023-07-13T14:48:25;8.27;;;3.53;;
74551;SDS011;63025;55.472;38.432;2023-07-13T14:50:55;8.70;;;3.55;;
74551;SDS011;63025;55.472;38.432;2023-07-13T14:53:22;10.63;;;4.22;;
74551;SDS011;63025;55.472;38.432;2023-07-13T14:55:50;11.55;;;5.53;;
74551;SDS011;63025;55.472;38.432;2023-07-13T14:58:16;10.85;;;4.50;;
74551;SDS011;63025;55.472;38.432;2023-07-13T15:00:42;13.90;;;4.05;;
74551;SDS011;63025;55.472;38.432;2023-07-13T15:03:15;10.85;;;3.67;;
74551;SDS011;63025;55.472;38.432;2023-07-13T15:05:49;8.05;;;3.67;;
74551;SDS011;63025;55.472;38.432;2023-07-13T15:08:16;6.68;;;3.75;;
74551;SDS011;63025;55.472;38.432;2023-07-13T15:10:42;8.65;;;4.05;;
74551;SDS011;63025;55.472;38.432;2023-07-13T15:15:48;7.03;;;3.65;;
74551;SDS011;63025;55.472;38.432;2023-07-13T15:18:18;7.32;;;3.80;;
74551;SDS011;63025;55.472;38.432;2023-07-13T15:20:47;8.05;;;4.07;;
74551;SDS011;63025;55.472;38.432;2023-07-13T15:23:15;7.78;;;4.07;;
74551;SDS011;63025;55.472;38.432;2023-07-13T15:26:00;9.65;;;4.18;;
74551;SDS011;63025;55.472;38.432;2023-07-13T15:28:25;8.52;;;3.85;;
74551;SDS011;63025;55.472;38.432;2023-07-13T15:30:51;5.70;;;4.05;;
74551;SDS011;63025;55.472;38.432;2023-07-13T15:33:21;8.88;;;4.03;;